Time;durP1;ratioP1;P1;durP2;ratioP2;P2;SDS_P1;SDS_P2;PMS_P1;PMS_P2;Temp;Humidity;BMP_temperature;BMP_pressure;BME280_temperature;BME280_humidity;BME280_pressure;Samples;Min_cycle;Max_cycle;Signal;HPM_P1;HPM_P2
2022/12/30 00:02:08;;;;;;;1.47;1.30;;;5.90;99.90;;;;;;5043907;28;20562;-57
2022/12/30 00:04:33;;;;;;;3.47;1.53;;;5.90;99.90;;;;;;5022580;28;20257;-57
2022/12/30 00:07:00;;;;;;;1.50;1.40;;;5.90;99.90;;;;;;5035594;28;20274;-57
2022/12/30 00:09:25;;;;;;;4.57;1.90;;;5.90;99.90;;;;;;5039271;28;20196;-59
2022/12/30 00:11:51;;;;;;;1.90;1.50;;;5.90;99.90;;;;;;5038241;28;20433;-56
2022/12/30 00:34:36;;;;;;;1.30;1.20;;;5.80;99.90;;;;;;5039088;28;20452;-58
2022/12/30 00:37:02;;;;;;;1.40;1.30;;;5.80;99.90;;;;;;5029588;28;21864;-54
2022/12/30 00:39:28;;;;;;;1.30;1.20;;;5.90;99.90;;;;;;5037642;28;20463;-58
2022/12/30 00:44:38;;;;;;;4.83;1.30;;;5.80;99.90;;;;;;5035182;28;20764;-57
2022/12/30 00:47:05;;;;;;;3.83;1.70;;;5.80;99.90;;;;;;5038013;28;20977;-57
2022/12/30 00:57:43;;;;;;;1.43;1.00;;;5.80;99.90;;;;;;5038498;28;20522;-57
2022/12/30 01:00:11;;;;;;;1.10;1.10;;;5.80;99.90;;;;;;5034245;28;20504;-58
2022/12/30 01:02:37;;;;;;;1.20;1.00;;;5.80;99.90;;;;;;5039154;28;20207;-56
2022/12/30 01:05:04;;;;;;;1.07;0.97;;;5.80;99.90;;;;;;5038868;28;21183;-57
2022/12/30 01:07:30;;;;;;;2.03;1.30;;;5.80;99.90;;;;;;5037144;28;20773;-57
2022/12/30 01:09:56;;;;;;;1.03;0.97;;;5.80;99.90;;;;;;5045916;28;21065;-57
2022/12/30 01:12:22;;;;;;;1.40;1.10;;;5.80;99.90;;;;;;5043687;28;20840;-58
2022/12/30 01:14:50;;;;;;;1.00;1.00;;;5.80;99.90;;;;;;5040615;28;20469;-57
2022/12/30 01:17:22;;;;;;;1.73;1.30;;;5.80;99.90;;;;;;5032373;28;20210;-58
2022/12/30 01:19:48;;;;;;;6.30;1.30;;;5.80;99.90;;;;;;5040136;28;20450;-58
2022/12/30 01:22:14;;;;;;;1.33;1.17;;;5.80;99.90;;;;;;5048978;28;20444;-57
2022/12/30 01:24:40;;;;;;;1.87;1.40;;;5.80;99.90;;;;;;5040428;28;20306;-57
2022/12/30 01:27:06;;;;;;;1.70;1.20;;;5.80;99.90;;;;;;5036995;28;20521;-57
2022/12/30 01:29:37;;;;;;;1.17;1.07;;;5.70;99.90;;;;;;5045171;28;20203;-57
2022/12/30 01:32:05;;;;;;;2.17;1.47;;;5.70;99.90;;;;;;5021382;28;20426;-56
2022/12/30 01:34:31;;;;;;;1.27;1.07;;;5.70;99.90;;;;;;5044653;28;20554;-57
2022/12/30 01:36:56;;;;;;;3.00;1.63;;;5.70;99.90;;;;;;5041162;28;21151;-57
2022/12/30 01:39:22;;;;;;;1.20;1.10;;;5.70;99.90;;;;;;5045333;28;20207;-57
2022/12/30 01:41:48;;;;;;;0.83;0.83;;;5.70;99.90;;;;;;5036833;28;20684;-57
2022/12/30 01:44:39;;;;;;;1.10;1.00;;;5.70;99.90;;;;;;5036632;28;20191;-57
2022/12/30 01:47:04;;;;;;;0.80;0.80;;;5.70;99.90;;;;;;5033436;28;20164;-57
2022/12/30 01:49:32;;;;;;;1.10;1.00;;;5.60;99.90;;;;;;5039570;28;21081;-57
2022/12/30 01:51:58;;;;;;;0.90;0.90;;;5.60;99.90;;;;;;5035237;28;20174;-57
2022/12/30 01:54:24;;;;;;;3.03;0.90;;;5.60;99.90;;;;;;5034470;28;20414;-58
2022/12/30 01:56:50;;;;;;;1.03;0.90;;;5.60;99.90;;;;;;5040315;28;20258;-57
2022/12/30 01:59:19;;;;;;;1.40;0.83;;;5.60;99.90;;;;;;5028765;28;20533;-57
2022/12/30 02:01:45;;;;;;;0.80;0.80;;;5.60;99.90;;;;;;5037661;28;20171;-57
2022/12/30 02:04:15;;;;;;;0.97;0.93;;;5.60;99.90;;;;;;5019119;28;20429;-58
2022/12/30 02:06:55;;;;;;;0.87;0.80;;;5.60;99.90;;;;;;5034873;28;20430;-57
2022/12/30 02:09:22;;;;;;;1.67;1.20;;;5.60;99.90;;;;;;5041903;28;20571;-57
2022/12/30 02:11:48;;;;;;;3.00;1.10;;;5.60;99.90;;;;;;5038140;28;20495;-57
2022/12/30 02:14:14;;;;;;;1.67;1.30;;;5.60;99.90;;;;;;5041908;28;20825;-57
2022/12/30 02:16:46;;;;;;;1.40;1.23;;;5.60;99.90;;;;;;5040859;28;20459;-58
2022/12/30 02:19:14;;;;;;;2.10;1.30;;;5.60;99.90;;;;;;5031857;28;20584;-57
2022/12/30 02:22:06;;;;;;;2.57;1.30;;;5.60;99.90;;;;;;5034846;28;20433;-59
2022/12/30 02:25:09;;;;;;;2.27;1.10;;;5.60;99.90;;;;;;5033945;28;20969;-57
2022/12/30 02:28:26;;;;;;;1.57;1.30;;;5.60;99.90;;;;;;5030918;28;20961;-57
2022/12/30 02:31:02;;;;;;;1.53;1.00;;;5.60;99.90;;;;;;5046595;28;20847;-57
2022/12/30 02:33:35;;;;;;;2.10;1.27;;;5.60;99.90;;;;;;5042716;28;20461;-58
2022/12/30 02:36:05;;;;;;;2.50;1.17;;;5.60;99.90;;;;;;5044289;28;21056;-57
2022/12/30 02:38:48;;;;;;;1.23;1.13;;;5.60;99.90;;;;;;5034007;28;20553;-56
2022/12/30 02:47:10;;;;;;;1.27;1.13;;;5.60;99.90;;;;;;5042149;28;20432;-57
2022/12/30 02:49:38;;;;;;;1.23;1.10;;;5.60;99.90;;;;;;5040395;28;20571;-58
2022/12/30 02:52:14;;;;;;;3.10;1.40;;;5.60;99.90;;;;;;5051437;28;20441;-56
2022/12/30 02:54:44;;;;;;;1.20;1.10;;;5.60;99.90;;;;;;5023498;28;20479;-58
2022/12/30 02:57:31;;;;;;;1.47;1.10;;;5.60;99.90;;;;;;5052207;28;20958;-58
2022/12/30 03:06:28;;;;;;;2.03;1.20;;;5.60;99.90;;;;;;5047500;28;20572;-57
2022/12/30 03:09:35;;;;;;;1.47;1.37;;;5.60;99.90;;;;;;5049359;28;20473;-57
2022/12/30 03:12:10;;;;;;;1.10;1.10;;;5.70;99.90;;;;;;5018918;28;20499;-57
2022/12/30 03:14:45;;;;;;;1.40;1.20;;;5.70;99.90;;;;;;5044862;28;20460;-57
2022/12/30 03:17:19;;;;;;;1.30;1.20;;;5.70;99.90;;;;;;5020779;28;20494;-58
2022/12/30 03:19:50;;;;;;;1.53;1.43;;;5.70;99.90;;;;;;5043733;28;20436;-57
2022/12/30 03:27:53;;;;;;;1.27;1.17;;;5.80;99.90;;;;;;5047733;28;21059;-57
2022/12/30 03:30:19;;;;;;;1.20;1.20;;;5.80;99.90;;;;;;5040711;28;20970;-57
2022/12/30 03:32:46;;;;;;;1.30;1.20;;;5.80;99.90;;;;;;5028729;28;20463;-57
2022/12/30 03:35:12;;;;;;;1.03;1.00;;;5.80;99.90;;;;;;5052910;28;21371;-57
2022/12/30 03:37:47;;;;;;;0.80;0.80;;;5.80;99.90;;;;;;5049060;28;20434;-57
2022/12/30 03:40:25;;;;;;;0.97;0.97;;;5.70;99.90;;;;;;5042448;28;20691;-57
2022/12/30 03:42:53;;;;;;;1.17;1.07;;;5.70;99.90;;;;;;5043418;28;20428;-57
2022/12/30 03:45:19;;;;;;;4.70;1.37;;;5.70;99.90;;;;;;5039478;28;20442;-57
2022/12/30 03:47:45;;;;;;;1.50;1.00;;;5.70;99.90;;;;;;5041887;28;20435;-57
2022/12/30 03:50:11;;;;;;;3.90;0.97;;;5.70;99.90;;;;;;5020542;28;20532;-57
2022/12/30 03:52:36;;;;;;;1.10;1.00;;;5.70;99.90;;;;;;5039419;28;20180;-58
2022/12/30 03:55:03;;;;;;;1.83;0.90;;;5.70;99.90;;;;;;5038559;28;20548;-58
2022/12/30 03:57:28;;;;;;;0.90;0.90;;;5.70;99.90;;;;;;5041426;28;20190;-57
2022/12/30 03:59:54;;;;;;;0.97;0.97;;;5.70;99.90;;;;;;5021520;28;20592;-58
2022/12/30 04:02:20;;;;;;;2.30;0.90;;;5.70;99.90;;;;;;5039706;28;20620;-57
2022/12/30 04:04:45;;;;;;;1.57;0.90;;;5.60;99.90;;;;;;5037523;28;20180;-57
2022/12/30 04:07:11;;;;;;;1.60;1.00;;;5.60;99.90;;;;;;5036879;28;20206;-57
2022/12/30 04:09:37;;;;;;;2.07;0.97;;;5.60;99.90;;;;;;5044546;28;20207;-58
2022/12/30 04:12:03;;;;;;;0.90;0.90;;;5.60;99.90;;;;;;5032558;28;20176;-57
2022/12/30 04:14:28;;;;;;;3.03;1.00;;;5.60;99.90;;;;;;5042487;28;20272;-57
2022/12/30 04:16:54;;;;;;;1.93;1.00;;;5.60;99.90;;;;;;5023111;28;20179;-57
2022/12/30 04:19:19;;;;;;;0.90;0.90;;;5.60;99.90;;;;;;5041140;28;21387;-57
2022/12/30 04:21:45;;;;;;;0.90;0.80;;;5.60;99.90;;;;;;5038241;28;20272;-58
2022/12/30 04:24:11;;;;;;;1.33;0.90;;;5.60;99.90;;;;;;5021233;28;20579;-57
2022/12/30 04:26:36;;;;;;;0.80;0.80;;;5.60;99.90;;;;;;5039559;28;20572;-57
2022/12/30 04:29:02;;;;;;;3.03;1.03;;;5.50;99.90;;;;;;5021193;28;20213;-58
2022/12/30 04:31:28;;;;;;;1.37;1.10;;;5.50;99.90;;;;;;5039331;28;20171;-58
2022/12/30 04:33:54;;;;;;;0.80;0.80;;;5.50;99.90;;;;;;5037079;28;20188;-58
2022/12/30 04:36:20;;;;;;;1.27;1.00;;;5.50;99.90;;;;;;5037033;28;20203;-58
2022/12/30 04:38:46;;;;;;;1.90;1.17;;;5.50;99.90;;;;;;5037918;28;20461;-57
2022/12/30 04:41:12;;;;;;;1.00;0.90;;;5.50;99.90;;;;;;5043428;28;20534;-58
2022/12/30 04:43:38;;;;;;;0.80;0.80;;;5.50;99.90;;;;;;5041715;28;20429;-58
2022/12/30 04:46:05;;;;;;;1.03;0.97;;;5.50;99.90;;;;;;5040184;28;20431;-57
2022/12/30 04:48:31;;;;;;;0.80;0.80;;;5.50;99.90;;;;;;5035794;28;20677;-57
2022/12/30 04:50:57;;;;;;;1.73;0.90;;;5.50;99.90;;;;;;5039340;28;20840;-57
2022/12/30 04:53:22;;;;;;;1.17;1.00;;;5.50;99.90;;;;;;5045031;28;20433;-57
2022/12/30 04:55:53;;;;;;;1.20;0.90;;;5.50;99.90;;;;;;5044039;28;20344;-57
2022/12/30 04:58:19;;;;;;;1.10;0.90;;;5.50;99.90;;;;;;5039273;28;20635;-57
2022/12/30 05:00:46;;;;;;;0.93;0.90;;;5.50;99.90;;;;;;5045076;28;20520;-58
2022/12/30 05:03:12;;;;;;;2.97;1.80;;;5.50;99.90;;;;;;5044788;28;20485;-57
2022/12/30 05:05:38;;;;;;;1.93;1.40;;;5.50;99.90;;;;;;5045580;28;20438;-58
2022/12/30 05:08:04;;;;;;;1.93;1.43;;;5.50;99.90;;;;;;5043920;28;20203;-58
2022/12/30 05:10:29;;;;;;;2.00;1.00;;;5.50;99.90;;;;;;5046783;28;20184;-58
2022/12/30 05:12:55;;;;;;;1.20;1.10;;;5.50;99.90;;;;;;5047943;28;20500;-58
2022/12/30 05:15:20;;;;;;;1.10;1.00;;;5.50;99.90;;;;;;5044054;28;20199;-58
2022/12/30 05:17:46;;;;;;;1.30;1.20;;;5.50;99.90;;;;;;5040010;28;20167;-57
2022/12/30 05:20:11;;;;;;;1.87;1.00;;;5.50;99.90;;;;;;5018367;28;20179;-59
2022/12/30 05:22:37;;;;;;;0.90;0.90;;;5.50;99.90;;;;;;5034589;28;20285;-57
2022/12/30 05:27:47;;;;;;;1.23;1.17;;;5.50;99.90;;;;;;5041942;28;20823;-57
2022/12/30 05:30:13;;;;;;;1.10;1.10;;;5.50;99.90;;;;;;5041051;28;20437;-57
2022/12/30 05:32:39;;;;;;;2.63;1.03;;;5.50;99.90;;;;;;5020470;28;20663;-58
2022/12/30 05:35:05;;;;;;;1.63;1.23;;;5.50;99.90;;;;;;5041154;28;20206;-57
2022/12/30 05:37:30;;;;;;;1.10;1.00;;;5.50;99.90;;;;;;5039055;28;20199;-60
2022/12/30 05:39:56;;;;;;;0.80;0.80;;;5.50;99.90;;;;;;5023513;28;20478;-57
2022/12/30 05:42:21;;;;;;;1.10;0.87;;;5.50;99.90;;;;;;5034822;28;20176;-58
2022/12/30 05:44:47;;;;;;;1.17;1.07;;;5.50;99.90;;;;;;5032121;28;20187;-57
2022/12/30 05:47:13;;;;;;;1.50;1.40;;;5.50;99.90;;;;;;5038381;28;20179;-57
2022/12/30 05:49:38;;;;;;;2.23;1.20;;;5.50;99.90;;;;;;5040520;28;20187;-58
2022/12/30 05:52:04;;;;;;;2.27;1.60;;;5.50;99.90;;;;;;5044578;28;20183;-60
2022/12/30 05:54:29;;;;;;;1.30;1.20;;;5.50;99.90;;;;;;5043759;28;20178;-57
2022/12/30 05:56:55;;;;;;;1.50;1.40;;;5.40;99.90;;;;;;5032655;28;20207;-57
2022/12/30 05:59:21;;;;;;;1.20;1.10;;;5.50;99.90;;;;;;5043239;28;20194;-57
2022/12/30 06:01:47;;;;;;;2.70;1.20;;;5.50;99.90;;;;;;5040186;28;20167;-57
2022/12/30 06:04:12;;;;;;;1.60;1.10;;;5.50;99.90;;;;;;5016563;28;20179;-58
2022/12/30 06:06:38;;;;;;;1.40;1.30;;;5.50;99.90;;;;;;5039096;28;20457;-58
2022/12/30 06:09:04;;;;;;;1.40;1.20;;;5.40;99.90;;;;;;5042671;28;20199;-57
2022/12/30 06:11:29;;;;;;;1.30;1.20;;;5.40;99.90;;;;;;5042607;28;20186;-57
2022/12/30 06:13:55;;;;;;;3.10;1.30;;;5.40;99.90;;;;;;5017628;28;20175;-57
2022/12/30 06:16:20;;;;;;;2.17;1.23;;;5.40;99.90;;;;;;5038048;28;20206;-56
2022/12/30 06:18:46;;;;;;;2.90;1.63;;;5.40;99.90;;;;;;5039591;28;20268;-57
2022/12/30 06:21:12;;;;;;;1.60;1.50;;;5.40;99.90;;;;;;5033160;28;20180;-58
2022/12/30 06:23:38;;;;;;;1.77;1.63;;;5.40;99.90;;;;;;5038441;28;20433;-58
2022/12/30 06:26:03;;;;;;;3.60;2.80;;;5.40;99.90;;;;;;5043198;28;20690;-57
2022/12/30 06:28:30;;;;;;;3.90;3.13;;;5.40;99.90;;;;;;5020664;28;20202;-56
2022/12/30 06:30:56;;;;;;;2.53;1.90;;;5.40;99.90;;;;;;5031461;28;20580;-57
2022/12/30 06:33:23;;;;;;;1.87;1.60;;;5.40;99.90;;;;;;5036706;28;20440;-58
2022/12/30 06:35:49;;;;;;;2.60;1.67;;;5.40;99.90;;;;;;5039095;28;21142;-57
2022/12/30 06:38:14;;;;;;;1.50;1.40;;;5.40;99.90;;;;;;5037441;28;20469;-57
2022/12/30 06:40:40;;;;;;;2.23;2.10;;;5.40;99.90;;;;;;5037355;28;20186;-58
2022/12/30 06:43:06;;;;;;;2.33;1.80;;;5.40;99.90;;;;;;5037471;28;20200;-57
2022/12/30 06:45:31;;;;;;;1.70;1.60;;;5.40;99.90;;;;;;5019403;28;20191;-57
2022/12/30 06:47:58;;;;;;;3.97;2.33;;;5.40;99.90;;;;;;5039447;28;20172;-58
2022/12/30 06:50:24;;;;;;;14.10;2.70;;;5.30;99.90;;;;;;5048221;28;20171;-58
2022/12/30 06:52:49;;;;;;;1.90;1.80;;;5.30;99.90;;;;;;5043359;28;20826;-58
2022/12/30 06:55:15;;;;;;;1.83;1.73;;;5.30;99.90;;;;;;5032983;28;20206;-58
2022/12/30 06:57:41;;;;;;;1.50;1.40;;;5.30;99.90;;;;;;5034955;28;20171;-57
2022/12/30 07:00:07;;;;;;;4.50;1.80;;;5.30;99.90;;;;;;5026240;28;20191;-57
2022/12/30 07:02:34;;;;;;;1.70;1.60;;;5.30;99.90;;;;;;5036021;28;20160;-57
2022/12/30 07:04:59;;;;;;;1.77;1.67;;;5.30;99.90;;;;;;5030117;28;20426;-57
2022/12/30 07:07:25;;;;;;;2.90;2.03;;;5.30;99.90;;;;;;5047211;28;20449;-57
2022/12/30 07:09:51;;;;;;;1.83;1.73;;;5.30;99.90;;;;;;5038556;28;20548;-57
2022/12/30 07:12:17;;;;;;;1.60;1.50;;;5.30;99.90;;;;;;5032632;28;20179;-57
2022/12/30 07:14:43;;;;;;;1.70;1.60;;;5.30;99.90;;;;;;5037181;28;20960;-55
2022/12/30 07:17:09;;;;;;;2.10;1.37;;;5.30;99.90;;;;;;5042634;28;20459;-57
2022/12/30 07:19:35;;;;;;;2.30;1.43;;;5.30;99.90;;;;;;5028019;28;20222;-57
2022/12/30 07:22:00;;;;;;;1.53;1.43;;;5.30;99.90;;;;;;5045523;28;20175;-57
2022/12/30 07:24:26;;;;;;;1.70;1.60;;;5.30;99.90;;;;;;5040178;28;20206;-57
2022/12/30 07:26:51;;;;;;;1.83;1.73;;;5.30;99.90;;;;;;5040537;28;20172;-57
2022/12/30 07:29:17;;;;;;;2.27;2.10;;;5.30;99.90;;;;;;5046546;28;20272;-57
2022/12/30 07:31:43;;;;;;;2.13;1.93;;;5.30;99.90;;;;;;5044231;28;20205;-56
2022/12/30 07:34:08;;;;;;;2.50;2.30;;;5.30;99.90;;;;;;5036066;28;20172;-56
2022/12/30 07:36:34;;;;;;;2.17;2.00;;;5.30;99.90;;;;;;5022033;28;20634;-55
2022/12/30 07:39:00;;;;;;;2.83;2.20;;;5.40;99.90;;;;;;5036848;28;22239;-55
2022/12/30 07:41:26;;;;;;;2.40;2.20;;;5.40;99.90;;;;;;5037851;28;20179;-56
2022/12/30 07:43:52;;;;;;;2.17;1.83;;;5.50;99.90;;;;;;5042315;28;20728;-57
2022/12/30 07:46:18;;;;;;;2.07;1.97;;;5.50;99.90;;;;;;5040498;28;20525;-58
2022/12/30 07:48:44;;;;;;;2.33;2.13;;;5.50;99.90;;;;;;5023122;28;20226;-59
2022/12/30 07:51:13;;;;;;;2.90;2.60;;;5.50;99.90;;;;;;5036785;28;20527;-59
2022/12/30 07:53:39;;;;;;;2.60;2.20;;;5.50;99.90;;;;;;5038533;28;20765;-58
2022/12/30 07:56:07;;;;;;;4.10;2.50;;;5.40;99.90;;;;;;5025264;28;20452;-58
2022/12/30 07:58:33;;;;;;;5.83;2.50;;;5.40;99.90;;;;;;5035681;28;20460;-59
2022/12/30 08:01:04;;;;;;;2.33;2.10;;;5.40;99.90;;;;;;5040577;28;20454;-59
2022/12/30 08:03:30;;;;;;;2.63;2.40;;;5.40;99.90;;;;;;5032003;28;20198;-59
2022/12/30 08:05:56;;;;;;;3.00;2.70;;;5.40;99.90;;;;;;5018760;28;20438;-58
2022/12/30 08:08:21;;;;;;;2.50;2.30;;;5.40;99.90;;;;;;5031658;28;20469;-58
2022/12/30 08:10:57;;;;;;;3.33;2.80;;;5.40;99.90;;;;;;5032392;28;20570;-59
2022/12/30 08:13:23;;;;;;;4.87;3.53;;;5.40;99.90;;;;;;5034282;28;20197;-58
2022/12/30 08:15:49;;;;;;;5.03;3.10;;;5.40;99.90;;;;;;5035210;28;20466;-58
2022/12/30 08:18:15;;;;;;;5.40;2.80;;;5.40;99.90;;;;;;5019772;28;20205;-57
2022/12/30 08:20:40;;;;;;;19.10;9.90;;;5.40;99.90;;;;;;5045311;28;20167;-58
2022/12/30 08:23:06;;;;;;;3.03;2.83;;;5.40;99.90;;;;;;5037881;28;20254;-59
2022/12/30 08:25:32;;;;;;;3.23;2.77;;;5.40;99.90;;;;;;5044692;28;20179;-59
2022/12/30 08:27:58;;;;;;;2.70;2.50;;;5.40;99.90;;;;;;5041627;28;20179;-59
2022/12/30 08:30:24;;;;;;;3.90;2.30;;;5.30;99.90;;;;;;5031571;28;22388;-59
2022/12/30 08:32:49;;;;;;;3.83;2.63;;;5.40;99.90;;;;;;5037123;28;20187;-58
2022/12/30 08:35:15;;;;;;;2.77;2.57;;;5.40;99.90;;;;;;5037819;28;20196;-58
2022/12/30 08:37:41;;;;;;;2.90;2.50;;;5.40;99.90;;;;;;5041015;28;20250;-58
2022/12/30 08:40:07;;;;;;;3.63;2.70;;;5.40;99.90;;;;;;5048227;28;20198;-58
2022/12/30 08:42:35;;;;;;;3.67;2.90;;;5.40;99.90;;;;;;5017545;28;20453;-58
2022/12/30 08:45:01;;;;;;;2.87;2.40;;;5.40;99.90;;;;;;5034938;28;20430;-58
2022/12/30 08:47:26;;;;;;;3.37;2.40;;;5.40;99.90;;;;;;5039675;28;20808;-58
2022/12/30 08:49:52;;;;;;;2.70;2.33;;;5.40;99.90;;;;;;5042997;28;20203;-58
2022/12/30 08:52:18;;;;;;;2.30;2.10;;;5.40;99.90;;;;;;5037932;28;20175;-59
2022/12/30 08:54:43;;;;;;;3.70;2.67;;;5.40;99.90;;;;;;5038177;28;20179;-58
2022/12/30 08:57:09;;;;;;;3.63;3.20;;;5.40;99.90;;;;;;5042189;28;20182;-59
2022/12/30 08:59:34;;;;;;;3.23;2.87;;;5.40;99.90;;;;;;5034735;28;20725;-58
2022/12/30 09:02:00;;;;;;;2.23;2.10;;;5.50;99.90;;;;;;5036185;28;20521;-58
2022/12/30 09:04:26;;;;;;;2.67;2.47;;;5.50;99.90;;;;;;5042198;28;20539;-58
2022/12/30 09:06:51;;;;;;;2.53;2.33;;;5.50;99.90;;;;;;5041625;28;20263;-58
2022/12/30 09:09:17;;;;;;;2.67;2.47;;;5.60;99.90;;;;;;5035058;28;20200;-59
2022/12/30 09:11:43;;;;;;;3.47;2.50;;;5.60;99.90;;;;;;5013819;28;20573;-59
2022/12/30 09:14:12;;;;;;;2.77;2.57;;;5.60;99.90;;;;;;5034726;28;20233;-58
2022/12/30 09:16:37;;;;;;;2.10;2.00;;;5.70;99.90;;;;;;5027576;28;21027;-58
2022/12/30 09:19:03;;;;;;;2.40;2.20;;;5.70;99.90;;;;;;5016096;28;20450;-57
2022/12/30 09:21:29;;;;;;;2.53;2.33;;;5.80;99.90;;;;;;5017405;28;20244;-55
2022/12/30 09:23:55;;;;;;;2.57;2.37;;;5.80;99.90;;;;;;5043062;28;20458;-55
2022/12/30 09:26:23;;;;;;;2.40;1.77;;;5.80;99.90;;;;;;5027239;28;20278;-59
2022/12/30 09:28:49;;;;;;;2.07;1.90;;;5.90;99.90;;;;;;5015412;28;20204;-59
2022/12/30 09:31:15;;;;;;;2.40;2.20;;;5.90;99.90;;;;;;5022516;28;20440;-57
2022/12/30 09:33:42;;;;;;;1.80;1.70;;;6.00;99.90;;;;;;5029299;28;20487;-71
2022/12/30 09:36:08;;;;;;;2.73;2.27;;;6.00;99.90;;;;;;5032284;28;20453;-57
2022/12/30 09:38:34;;;;;;;2.27;2.00;;;6.00;99.90;;;;;;5022547;28;20469;-56
2022/12/30 09:41:05;;;;;;;7.13;2.33;;;6.10;99.90;;;;;;5027040;28;20456;-54
2022/12/30 09:44:21;;;;;;;2.13;1.93;;;6.10;99.90;;;;;;5027345;28;20425;-53
2022/12/30 09:47:25;;;;;;;1.63;1.53;;;6.20;99.90;;;;;;4924540;28;20891;-59
2022/12/30 09:50:19;;;;;;;3.30;1.90;;;6.20;99.90;;;;;;4931499;28;20458;-57
2022/12/30 09:53:09;;;;;;;1.80;1.70;;;6.20;99.90;;;;;;5018811;28;20465;-58
2022/12/30 09:55:56;;;;;;;1.50;1.40;;;6.20;99.90;;;;;;5029581;28;20450;-58
2022/12/30 09:58:42;;;;;;;1.87;1.70;;;6.30;99.90;;;;;;5029433;28;20433;-58
2022/12/30 10:01:27;;;;;;;2.40;2.20;;;6.40;99.90;;;;;;5032078;28;20467;-58
2022/12/30 10:03:58;;;;;;;1.90;1.80;;;6.50;99.90;;;;;;5035737;28;20548;-58
2022/12/30 10:06:38;;;;;;;2.07;1.97;;;6.60;99.90;;;;;;5034987;28;20509;-58
2022/12/30 10:09:18;;;;;;;3.43;2.40;;;6.70;99.90;;;;;;5032424;28;20456;-58
2022/12/30 10:12:01;;;;;;;2.90;2.63;;;6.80;99.90;;;;;;5038847;28;20433;-58
2022/12/30 10:14:52;;;;;;;5.73;3.40;;;7.00;99.90;;;;;;5036591;28;20942;-58
2022/12/30 10:17:39;;;;;;;2.37;2.17;;;7.00;99.90;;;;;;5036644;28;20446;-58
2022/12/30 10:20:46;;;;;;;3.03;2.73;;;7.10;99.90;;;;;;5036283;28;20467;-58
2022/12/30 10:23:50;;;;;;;3.30;2.10;;;7.10;99.90;;;;;;4970762;28;20476;-58
2022/12/30 10:26:22;;;;;;;3.13;2.07;;;7.10;99.90;;;;;;5012540;28;20587;-58
2022/12/30 10:29:05;;;;;;;2.40;2.13;;;7.00;99.90;;;;;;5014046;28;20445;-58
2022/12/30 10:31:34;;;;;;;2.20;2.00;;;6.90;99.90;;;;;;5029970;28;20449;-59
2022/12/30 10:34:13;;;;;;;5.70;2.40;;;6.90;99.90;;;;;;5032862;28;20871;-58
2022/12/30 10:37:01;;;;;;;1.93;1.80;;;6.90;99.90;;;;;;5032629;28;20464;-59
2022/12/30 10:39:35;;;;;;;3.90;2.43;;;7.00;99.90;;;;;;5033186;28;21212;-58
2022/12/30 10:42:28;;;;;;;2.87;2.67;;;7.10;99.90;;;;;;5033239;28;20429;-58
2022/12/30 10:45:00;;;;;;;4.47;3.30;;;7.20;99.90;;;;;;5036462;28;20522;-59
2022/12/30 10:47:43;;;;;;;3.53;2.73;;;7.30;99.90;;;;;;5036478;28;20513;-58
2022/12/30 10:50:34;;;;;;;2.70;2.20;;;7.30;99.90;;;;;;5026578;28;20460;-59
2022/12/30 10:53:02;;;;;;;1.73;1.63;;;7.40;99.90;;;;;;5038924;28;20535;-58
2022/12/30 10:55:31;;;;;;;1.90;1.80;;;7.40;99.90;;;;;;5038268;28;20563;-58
2022/12/30 10:58:11;;;;;;;1.90;1.80;;;7.30;99.90;;;;;;5040623;28;20437;-58
2022/12/30 11:00:40;;;;;;;2.03;1.80;;;7.20;99.90;;;;;;5023391;28;20451;-59
2022/12/30 11:03:29;;;;;;;1.67;1.57;;;7.20;99.90;;;;;;5026463;28;20604;-57
2022/12/30 11:05:56;;;;;;;1.60;1.50;;;7.10;99.90;;;;;;5032805;28;20442;-57
2022/12/30 11:08:29;;;;;;;2.30;1.90;;;7.10;99.90;;;;;;5027489;28;20465;-58
2022/12/30 11:11:00;;;;;;;1.60;1.50;;;7.10;99.90;;;;;;5028647;28;20506;-57
2022/12/30 11:16:12;;;;;;;1.53;1.43;;;7.00;99.90;;;;;;5022915;28;20523;-61
2022/12/30 11:18:42;;;;;;;2.30;1.80;;;7.00;99.90;;;;;;5020060;28;21036;-58
2022/12/30 11:21:08;;;;;;;1.77;1.60;;;7.00;99.90;;;;;;5020970;28;20425;-60
2022/12/30 11:23:39;;;;;;;1.57;1.50;;;7.00;99.90;;;;;;5028504;28;20453;-59
2022/12/30 11:26:17;;;;;;;1.50;1.40;;;7.00;99.90;;;;;;5030377;28;20179;-59
2022/12/30 11:28:51;;;;;;;4.63;1.57;;;7.00;99.90;;;;;;5009691;28;20453;-60
2022/12/30 11:31:18;;;;;;;1.60;1.50;;;7.00;99.90;;;;;;5029697;28;20452;-59
2022/12/30 11:33:53;;;;;;;2.53;1.70;;;7.10;99.90;;;;;;5026215;28;20449;-60
2022/12/30 11:36:29;;;;;;;1.30;1.20;;;7.10;99.90;;;;;;5025312;28;20457;-60
2022/12/30 11:39:15;;;;;;;2.87;1.80;;;7.10;99.90;;;;;;5028484;28;20475;-60
2022/12/30 11:41:51;;;;;;;3.17;2.07;;;7.10;99.90;;;;;;5029893;28;20434;-59
2022/12/30 11:44:23;;;;;;;7.33;2.80;;;7.10;99.90;;;;;;5031982;28;21021;-59
2022/12/30 11:46:52;;;;;;;2.23;2.03;;;7.10;99.90;;;;;;5026144;28;20437;-60
2022/12/30 11:49:36;;;;;;;2.20;2.00;;;7.00;99.90;;;;;;5026727;28;20458;-58
2022/12/30 11:52:15;;;;;;;4.00;2.40;;;7.00;99.90;;;;;;5035400;28;20441;-59
2022/12/30 11:54:47;;;;;;;2.50;2.30;;;7.00;99.90;;;;;;5009633;28;20721;-58
2022/12/30 11:57:31;;;;;;;6.10;1.80;;;7.00;99.90;;;;;;5036481;28;20456;-58
2022/12/30 12:00:02;;;;;;;2.97;2.77;;;7.00;99.90;;;;;;5032671;28;20452;-59
2022/12/30 12:02:37;;;;;;;8.37;3.23;;;7.00;99.90;;;;;;5039375;28;20464;-58
2022/12/30 12:05:21;;;;;;;3.70;2.47;;;7.00;99.90;;;;;;5033193;28;20456;-59
2022/12/30 12:07:50;;;;;;;4.60;2.67;;;7.00;99.90;;;;;;5034980;28;20495;-54
2022/12/30 12:10:33;;;;;;;6.00;3.33;;;7.00;99.90;;;;;;5045377;28;20488;-55
2022/12/30 12:13:09;;;;;;;3.93;2.67;;;7.00;99.90;;;;;;5039616;28;20445;-57
2022/12/30 12:15:54;;;;;;;2.50;2.10;;;7.00;99.90;;;;;;5014349;28;20461;-60
2022/12/30 12:18:43;;;;;;;2.83;2.53;;;7.00;99.90;;;;;;5036623;28;20444;-58
2022/12/30 12:21:23;;;;;;;2.30;2.10;;;7.00;99.90;;;;;;5021921;28;20434;-59
2022/12/30 12:23:49;;;;;;;3.00;2.53;;;7.00;99.90;;;;;;5032109;28;20459;-62
2022/12/30 12:26:47;;;;;;;7.00;2.80;;;6.90;99.90;;;;;;5038814;28;20469;-53
2022/12/30 12:29:14;;;;;;;4.93;3.50;;;6.90;99.90;;;;;;5048511;28;20214;-59
2022/12/30 12:31:57;;;;;;;3.27;2.67;;;7.00;99.90;;;;;;5038225;28;20460;-59
2022/12/30 12:34:23;;;;;;;4.13;2.60;;;7.00;99.90;;;;;;5050337;28;20432;-59
2022/12/30 12:37:07;;;;;;;2.27;2.10;;;7.00;99.90;;;;;;5034823;28;20464;-59
2022/12/30 12:40:14;;;;;;;2.27;1.90;;;7.00;99.90;;;;;;5036559;28;20209;-58
2022/12/30 12:42:59;;;;;;;2.43;2.00;;;7.10;99.90;;;;;;5025611;28;20428;-58
2022/12/30 12:45:46;;;;;;;12.60;2.47;;;7.10;99.90;;;;;;5045525;28;20457;-57
2022/12/30 12:48:24;;;;;;;1.70;1.60;;;7.20;99.90;;;;;;5036005;28;20461;-61
2022/12/30 12:50:52;;;;;;;3.93;1.97;;;7.20;99.90;;;;;;5040998;28;20440;-61
2022/12/30 12:53:45;;;;;;;2.30;2.10;;;7.10;99.90;;;;;;5029740;28;20441;-60
2022/12/30 12:56:29;;;;;;;2.20;2.00;;;7.20;99.90;;;;;;5035900;28;20538;-60
2022/12/30 12:59:43;;;;;;;4.97;3.00;;;7.20;99.90;;;;;;5020613;28;20791;-59
2022/12/30 13:02:34;;;;;;;2.90;2.50;;;7.20;99.90;;;;;;4986579;28;20550;-60
2022/12/30 13:05:15;;;;;;;4.00;2.30;;;7.20;99.90;;;;;;4994888;28;20859;-61
2022/12/30 13:08:06;;;;;;;3.53;2.80;;;7.20;99.90;;;;;;5032243;28;20431;-60
2022/12/30 13:10:43;;;;;;;11.13;2.13;;;7.20;99.90;;;;;;5033715;28;20480;-60
2022/12/30 13:13:22;;;;;;;2.67;1.97;;;7.20;99.90;;;;;;5035449;28;20449;-60
2022/12/30 13:15:53;;;;;;;2.20;2.00;;;7.20;99.90;;;;;;5033221;28;20493;-59
2022/12/30 13:18:23;;;;;;;3.20;2.40;;;7.20;99.90;;;;;;5029978;28;20472;-60
2022/12/30 13:20:53;;;;;;;4.33;2.37;;;7.20;99.90;;;;;;5033110;28;20801;-61
2022/12/30 13:23:24;;;;;;;3.37;1.90;;;7.10;99.90;;;;;;5036789;28;20788;-60
2022/12/30 13:25:57;;;;;;;3.37;2.30;;;7.10;99.90;;;;;;5032429;28;20425;-61
2022/12/30 13:28:25;;;;;;;3.67;2.10;;;7.10;99.90;;;;;;5043521;28;20449;-60
2022/12/30 13:31:18;;;;;;;2.70;2.07;;;7.10;99.90;;;;;;5031309;28;20933;-60
2022/12/30 13:33:52;;;;;;;4.03;2.00;;;7.10;99.90;;;;;;5026209;28;20422;-59
2022/12/30 13:36:36;;;;;;;2.13;1.90;;;7.10;99.90;;;;;;5038208;28;20471;-58
2022/12/30 13:39:14;;;;;;;3.57;1.77;;;7.10;99.90;;;;;;5041118;28;20456;-59
2022/12/30 13:41:48;;;;;;;3.43;1.80;;;7.10;99.90;;;;;;5029221;28;20442;-57
2022/12/30 13:44:17;;;;;;;1.63;1.50;;;7.10;99.90;;;;;;5030093;28;20432;-59
2022/12/30 13:46:52;;;;;;;2.60;2.20;;;7.00;99.90;;;;;;5036786;28;20437;-59
2022/12/30 13:49:26;;;;;;;3.17;2.20;;;7.00;99.90;;;;;;5033095;28;20494;-57
2022/12/30 13:51:58;;;;;;;3.30;2.40;;;6.90;99.90;;;;;;5016099;28;20433;-59
2022/12/30 13:54:24;;;;;;;9.63;2.20;;;6.90;99.90;;;;;;5042713;28;20444;-59
2022/12/30 13:56:51;;;;;;;4.00;2.40;;;6.90;99.90;;;;;;5043350;28;20514;-55
2022/12/30 13:59:31;;;;;;;3.03;2.43;;;6.90;99.90;;;;;;5036726;28;20883;-59
2022/12/30 14:02:18;;;;;;;6.50;4.60;;;6.80;99.90;;;;;;5022313;28;20426;-59
2022/12/30 14:04:52;;;;;;;2.97;2.73;;;6.80;99.90;;;;;;5031987;28;20437;-59
2022/12/30 14:07:39;;;;;;;13.40;4.50;;;6.80;99.90;;;;;;5036251;28;20430;-58
2022/12/30 14:10:20;;;;;;;6.90;4.50;;;6.80;99.90;;;;;;5031516;28;20458;-59
2022/12/30 14:13:16;;;;;;;10.43;5.77;;;6.80;99.90;;;;;;5030328;28;20863;-59
2022/12/30 14:15:41;;;;;;;11.23;6.00;;;6.70;99.90;;;;;;5027122;28;20461;-61